Time;durP1;ratioP1;P1;durP2;ratioP2;P2;SDS_P1;SDS_P2;PMS_P1;PMS_P2;Temp;Humidity;BMP_temperature;BMP_pressure;BME280_temperature;BME280_humidity;BME280_pressure;Samples;Min_cycle;Max_cycle;Signal;HPM_P1;HPM_P2
2023/03/31 05:00:42;;;;;;;;;0.00;0.00;;;;;13.93;71.20;-19583.22;5858105;23;46521;-88
2023/03/31 05:03:08;;;;;;;;;3.33;1.33;;;;;15.01;70.87;-19611.28;4971277;28;45431;-88
2023/03/31 05:05:34;;;;;;;;;2.00;1.00;;;;;15.01;70.96;-19611.41;4994704;28;45617;-89
2023/03/31 05:08:01;;;;;;;;;0.00;0.00;;;;;15.01;70.65;-19611.28;4996477;28;45486;-87
2023/03/31 05:10:26;;;;;;;;;1.33;1.33;;;;;14.79;70.76;-19605.63;4994042;28;46791;-89
2023/03/31 05:12:58;;;;;;;;;2.00;0.00;;;;;14.90;70.62;-19608.59;4986479;28;45661;-90
2023/03/31 05:15:23;;;;;;;;;0.00;0.00;;;;;15.02;70.21;-19611.53;4988628;28;45561;-87
2023/03/31 05:17:51;;;;;;;;;2.33;0.00;;;;;15.02;70.23;-19611.53;4997068;28;45527;-89
2023/03/31 05:20:18;;;;;;;;;2.33;1.00;;;;;14.74;69.68;-19604.28;4987988;28;45735;-87
2023/03/31 05:22:44;;;;;;;;;3.00;0.00;;;;;14.72;69.96;-19603.75;4985835;28;45687;-86
2023/03/31 05:25:31;;;;;;;;;0.00;0.00;;;;;14.96;69.77;-19610.19;4992128;28;45704;-87
2023/03/31 05:27:57;;;;;;;;;1.33;0.33;;;;;14.75;69.26;-19604.69;4992118;28;45776;-85
2023/03/31 05:30:26;;;;;;;;;4.00;3.00;;;;;14.90;69.17;-19608.59;5009908;28;45384;-82
2023/03/31 05:32:59;;;;;;;;;4.33;2.00;;;;;15.01;68.81;-19611.28;4998611;28;45534;-83
2023/03/31 05:35:25;;;;;;;;;2.33;1.00;;;;;13.75;68.62;-19578.38;5002469;28;45498;-84
2023/03/31 05:42:11;;;;;;;;;2.33;1.00;;;;;14.63;67.76;-19601.34;5127545;22;45570;-93
2023/03/31 05:44:59;;;;;;;;;0.67;0.67;;;;;13.70;67.68;-19577.03;4997097;28;45712;-95
2023/03/31 05:47:24;;;;;;;;;2.00;1.00;;;;;14.20;67.65;-19590.06;5000067;28;45449;-92
2023/03/31 05:49:53;;;;;;;;;0.00;0.00;;;;;13.68;67.52;-19576.63;4999579;28;47050;-92
2023/03/31 05:52:44;;;;;;;;;2.00;0.00;;;;;13.93;67.83;-19583.22;4997826;28;48259;-92
2023/03/31 05:55:10;;;;;;;;;3.33;2.00;;;;;14.12;67.56;-19588.19;4999252;28;45499;-93
2023/03/31 05:57:37;;;;;;;;;0.00;0.00;;;;;13.45;67.34;-19570.56;4998399;28;45505;-93
2023/03/31 06:00:05;;;;;;;;;1.00;1.00;;;;;14.49;67.11;-19597.72;4999941;28;45475;-92
2023/03/31 06:02:39;;;;;;;;;2.33;1.00;;;;;13.59;67.00;-19574.19;4997675;28;47953;-92
2023/03/31 06:05:05;;;;;;;;;0.00;0.00;;;;;14.63;66.72;-19601.47;5014879;28;45459;-94
2023/03/31 06:07:31;;;;;;;;;1.00;1.00;;;;;15.03;66.48;-19611.94;4994810;28;45512;-94
2023/03/31 06:09:56;;;;;;;;;1.00;1.00;;;;;13.64;66.05;-19575.41;4979868;28;45293;-92
2023/03/31 06:12:40;;;;;;;;;2.00;0.00;;;;;15.04;66.59;-19612.22;4979562;28;47987;-94
2023/03/31 06:18:11;;;;;;;;;0.67;0.00;;;;;13.49;66.25;-19571.50;4936804;28;45387;-93
2023/03/31 06:20:43;;;;;;;;;3.33;1.00;;;;;13.90;66.02;-19582.25;4949963;28;45379;-94
2023/03/31 06:23:14;;;;;;;;;0.67;0.67;;;;;13.36;66.16;-19568.00;4952269;28;47856;-93
2023/03/31 06:25:42;;;;;;;;;2.67;0.67;;;;;14.76;65.96;-19604.84;4946995;28;45346;-94
2023/03/31 06:28:19;;;;;;;;;0.00;0.00;;;;;13.52;65.60;-19572.31;4944139;28;45471;-94
2023/03/31 06:30:52;;;;;;;;;0.33;0.00;;;;;14.08;65.74;-19586.97;4937628;28;45577;-94
2023/03/31 06:33:20;;;;;;;;;2.00;0.33;;;;;13.85;65.16;-19580.91;4929635;28;47766;-93
2023/03/31 06:35:45;;;;;;;;;3.33;0.67;;;;;14.14;65.45;-19588.72;4932986;28;45806;-90
2023/03/31 06:38:10;;;;;;;;;4.67;2.00;;;;;14.65;65.16;-19601.88;4939264;28;45500;-90
2023/03/31 06:40:36;;;;;;;;;0.00;0.00;;;;;14.74;65.25;-19604.44;4916049;28;45570;-90
2023/03/31 06:43:01;;;;;;;;;1.00;1.00;;;;;15.08;65.01;-19613.16;4920520;28;47049;-91
2023/03/31 06:45:27;;;;;;;;;3.00;1.00;;;;;14.14;65.32;-19586.75;4935888;28;45455;-90
2023/03/31 06:47:52;;;;;;;;;1.00;0.67;;;;;14.36;64.58;-19592.53;4929537;28;45536;-89
2023/03/31 06:50:17;;;;;;;;;2.33;0.00;;;;;14.12;65.17;-19586.09;4937738;28;45667;-90
2023/03/31 06:52:43;;;;;;;;;2.00;0.00;;;;;14.33;64.76;-19591.59;4937278;28;46273;-89
2023/03/31 06:55:11;;;;;;;;;0.00;0.00;;;;;14.40;64.97;-19593.47;4960545;28;45588;-91
2023/03/31 06:57:37;;;;;;;;;0.33;0.33;;;;;15.12;64.96;-19612.28;4966361;28;45350;-91
2023/03/31 07:00:04;;;;;;;;;2.00;1.00;;;;;14.31;64.41;-19591.19;4959687;28;45486;-88
2023/03/31 07:02:30;;;;;;;;;1.00;1.00;;;;;14.10;64.59;-19585.56;4991243;28;45536;-89
2023/03/31 07:04:55;;;;;;;;;3.67;2.00;;;;;15.13;64.11;-19612.53;4998926;28;45295;-91
2023/03/31 07:07:20;;;;;;;;;3.00;0.00;;;;;14.67;64.16;-19600.47;5007589;28;46164;-90
2023/03/31 07:09:46;;;;;;;;;0.00;0.00;;;;;13.89;64.26;-19247.53;5000711;28;45524;-91
2023/03/31 07:12:11;;;;;;;;;3.00;2.00;;;;;14.62;63.83;-19266.09;4998367;28;45514;-91
2023/03/31 07:14:36;;;;;;;;;0.67;0.67;;;;;14.74;64.05;-19269.25;4998677;28;45338;-91
2023/03/31 07:17:02;;;;;;;;;0.00;0.00;;;;;14.25;63.86;-19256.75;4998631;28;45312;-90
2023/03/31 07:19:28;;;;;;;;;0.33;0.00;;;;;14.68;64.23;-19267.69;5015245;28;44959;-96
2023/03/31 07:21:55;;;;;;;;;3.33;0.33;;;;;14.60;63.56;-18932.66;5012896;28;45439;-96
2023/03/31 07:24:21;;;;;;;;;2.00;0.67;;;;;14.49;63.38;-18929.81;5016656;28;45366;-96
2023/03/31 07:26:47;;;;;;;;;1.00;1.00;;;;;14.15;63.34;-18921.44;5018113;28;44745;-96
2023/03/31 07:29:16;;;;;;;;;3.33;1.00;;;;;14.71;63.09;-18935.50;5010717;28;45348;-94
2023/03/31 07:31:41;;;;;;;;;0.00;0.00;;;;;14.03;62.92;-18585.59;4999051;28;47176;-92
2023/03/31 07:34:07;;;;;;;;;1.00;0.00;;;;;13.68;63.01;-18576.88;4997250;28;45447;-95
2023/03/31 07:36:35;;;;;;;;;0.00;0.00;;;;;14.27;62.96;-18591.38;4997726;28;45384;-93
2023/03/31 07:39:00;;;;;;;;;0.00;0.00;;;;;15.03;62.74;-18610.06;5016076;28;45512;-91
2023/03/31 07:41:26;;;;;;;;;0.00;0.00;;;;;14.74;62.76;-18603.00;5019290;28;46364;-93
2023/03/31 07:43:51;;;;;;;;;0.00;0.00;;;;;14.30;62.59;-18592.28;5030878;28;45734;-95
2023/03/31 07:51:28;;;;;;;;;1.00;0.00;;;;;14.77;62.36;-18270.69;5272709;23;45799;-88
2023/03/31 07:54:30;;;;;;;;;0.00;0.00;;;;;15.33;62.73;-18284.00;5016941;28;45302;-89
2023/03/31 07:57:01;;;;;;;;;0.00;0.00;;;;;13.82;62.45;-18247.59;5016917;28;45293;-87
2023/03/31 07:59:26;;;;;;;;;1.00;1.00;;;;;15.08;62.77;-18611.44;5017374;28;45476;-86
2023/03/31 08:01:52;;;;;;;;;1.67;0.00;;;;;15.20;62.66;-18614.47;5015891;28;45482;-92
2023/03/31 08:04:17;;;;;;;;;0.00;0.00;;;;;15.44;62.90;-18620.13;5000786;28;45479;-87
2023/03/31 08:06:42;;;;;;;;;1.00;0.00;;;;;15.35;62.51;-18284.50;5017363;28;50523;-87
2023/03/31 08:09:08;;;;;;;;;0.00;0.00;;;;;15.13;62.38;-18612.56;5018078;28;45443;-87
2023/03/31 08:11:33;;;;;;;;;1.00;1.00;;;;;15.32;62.71;-18283.75;5017187;28;46430;-87
2023/03/31 08:13:59;;;;;;;;;3.33;0.67;;;;;15.51;62.29;-18288.44;5017109;28;45307;-88
2023/03/31 08:16:24;;;;;;;;;2.00;1.00;;;;;15.54;62.72;-18289.19;5017092;28;45472;-86
2023/03/31 08:18:50;;;;;;;;;3.00;1.00;;;;;15.23;62.51;-18281.66;5018068;28;45348;-87
2023/03/31 08:21:15;;;;;;;;;1.00;0.33;;;;;15.54;62.62;-18289.19;5016779;28;45893;-89
2023/03/31 08:23:40;;;;;;;;;1.00;1.00;;;;;15.07;62.76;-18611.19;5017178;28;45425;-87
2023/03/31 08:26:23;;;;;;;;;0.33;0.00;;;;;15.27;62.60;-18616.09;5016305;28;45483;-94
2023/03/31 08:28:51;;;;;;;;;2.33;0.00;;;;;15.65;62.72;-18625.31;5004979;28;45408;-94
2023/03/31 08:31:19;;;;;;;;;0.67;0.00;;;;;15.68;62.71;-18626.06;5018225;28;48187;-95
2023/03/31 08:34:01;;;;;;;;;0.00;0.00;;;;;14.84;62.84;-18605.38;5020315;28;45644;-94
2023/03/31 08:36:28;;;;;;;;;0.00;0.00;;;;;15.35;62.99;-18618.13;5020301;28;45386;-94
2023/03/31 08:38:54;;;;;;;;;2.00;1.00;;;;;15.23;62.34;-18281.53;5022019;28;45609;-92
2023/03/31 08:41:25;;;;;;;;;1.00;1.00;;;;;15.78;62.10;-18294.84;5018481;28;45426;-91
2023/03/31 08:43:58;;;;;;;;;1.33;1.33;;;;;15.79;61.91;-18295.22;5018289;28;45540;-94
2023/03/31 08:46:26;;;;;;;;;0.33;0.33;;;;;15.80;61.91;-18295.47;5016620;28;45386;-94
2023/03/31 08:49:16;;;;;;;;;4.00;1.33;;;;;14.62;61.35;-17933.84;5019760;28;45367;-94
2023/03/31 08:52:01;;;;;;;;;0.67;0.67;;;;;15.58;61.54;-17956.41;5017791;28;45826;-95
2023/03/31 08:54:51;;;;;;;;;0.00;0.00;;;;;15.68;60.91;-17625.06;5019317;28;45264;-94
2023/03/31 08:57:32;;;;;;;;;2.00;0.00;;;;;15.35;60.49;-17283.94;5017128;28;45534;-93
2023/03/31 09:00:05;;;;;;;;;4.33;1.00;;;;;15.86;59.90;-16961.44;5000471;28;45535;-95
2023/03/31 09:02:31;;;;;;;;;1.00;1.00;;;;;15.99;59.78;-16964.25;5017700;28;46300;-92
2023/03/31 09:05:05;;;;;;;;;0.00;0.00;;;;;16.01;59.96;-16630.72;5016487;28;45386;-95
2023/03/31 09:07:50;;;;;;;;;0.00;0.00;;;;;16.04;59.93;-16631.47;4999283;28;45720;-95
2023/03/31 09:10:37;;;;;;;;;2.00;1.00;;;;;16.04;60.07;-16631.47;5018336;28;45356;-95
2023/03/31 09:13:27;;;;;;;;;0.00;0.00;;;;;16.07;59.50;-16297.97;5015896;28;45644;-94
2023/03/31 09:15:57;;;;;;;;;2.00;0.00;;;;;15.51;59.37;-16286.22;4999449;28;45338;-92
2023/03/31 09:18:36;;;;;;;;;0.33;0.00;;;;;16.12;59.81;-16298.94;5015825;28;45427;-92
2023/03/31 09:21:23;;;;;;;;;0.00;0.00;;;;;15.95;59.00;-15961.50;4996432;28;45509;-89
2023/03/31 09:24:03;;;;;;;;;2.00;2.00;;;;;15.89;58.28;-15292.16;5009245;28;47115;-91
2023/03/31 09:26:36;;;;;;;;;1.00;1.00;;;;;16.05;59.06;-15963.47;5006382;28;45691;-93
2023/03/31 09:29:11;;;;;;;;;0.33;0.33;;;;;16.13;59.76;-15965.13;4999700;28;45385;-96
2023/03/31 09:31:39;;;;;;;;;0.00;0.00;;;;;16.06;61.57;-16965.84;5025645;28;45490;-95
2023/03/31 09:34:13;;;;;;;;;0.00;0.00;;;;;15.30;63.18;-18283.25;5016898;28;45434;-92
2023/03/31 09:36:38;;;;;;;;;0.00;0.00;;;;;15.68;64.69;-19293.44;5014499;28;45431;-92
2023/03/31 09:39:05;;;;;;;;;0.33;0.33;;;;;15.48;65.64;-19621.66;5016526;28;45412;-92
2023/03/31 09:41:30;;;;;;;;;0.67;0.33;;;;;15.78;65.37;-19629.56;5017180;28;45406;-96
2023/03/31 09:43:56;;;;;;;;;0.33;0.33;;;;;15.46;65.64;-19621.25;5018056;28;46486;-96
2023/03/31 09:46:34;;;;;;;;;0.00;0.00;;;;;15.30;66.88;-19618.94;5019389;28;45558;-95
2023/03/31 09:49:17;;;;;;;;;0.00;0.00;;;;;15.75;66.46;-19630.88;5001730;28;45361;-94
2023/03/31 09:51:48;;;;;;;;;0.00;0.00;;;;;15.83;66.04;-19633.00;5013170;28;45527;-96
2023/03/31 09:54:23;;;;;;;;;1.00;0.00;;;;;15.56;66.59;-19625.91;5010899;28;47630;-95
2023/03/31 09:56:55;;;;;;;;;0.00;0.00;;;;;15.94;66.32;-19635.81;5000636;28;45494;-96
2023/03/31 09:59:23;;;;;;;;;0.00;0.00;;;;;15.53;65.73;-19624.97;4999187;28;45305;-95
2023/03/31 10:01:55;;;;;;;;;0.00;0.00;;;;;15.94;65.08;-19635.81;5006715;28;45383;-96
2023/03/31 10:04:27;;;;;;;;;0.33;0.33;;;;;16.20;64.08;-19640.72;5003685;28;46199;-93
2023/03/31 10:06:53;;;;;;;;;1.33;0.33;;;;;16.00;63.95;-19635.34;5003778;28;45361;-93
2023/03/31 10:09:23;;;;;;;;;0.67;0.67;;;;;16.37;62.59;-18977.06;5002771;28;45427;-91
2023/03/31 10:12:03;;;;;;;;;2.00;0.00;;;;;16.48;62.42;-19313.78;5009464;28;45407;-94
2023/03/31 10:14:44;;;;;;;;;0.00;0.00;;;;;16.40;62.16;-18977.84;5007647;28;47390;-96
2023/03/31 10:17:15;;;;;;;;;2.00;0.67;;;;;16.23;60.56;-18305.69;5008898;28;45357;-94
2023/03/31 10:19:50;;;;;;;;;0.00;0.00;;;;;16.68;60.74;-18316.50;5011958;28;45351;-96
2023/03/31 10:22:21;;;;;;;;;1.00;0.33;;;;;16.67;60.21;-17982.03;5009411;28;45166;-95
2023/03/31 10:24:49;;;;;;;;;3.00;0.00;;;;;16.21;59.46;-17303.28;5006299;28;47344;-91
2023/03/31 10:27:26;;;;;;;;;0.00;0.00;;;;;16.38;59.70;-17307.06;5006355;28;45221;-94
2023/03/31 10:30:06;;;;;;;;;0.67;0.67;;;;;16.73;59.23;-16980.41;5005748;28;45342;-95
2023/03/31 10:32:38;;;;;;;;;0.00;0.00;;;;;16.79;58.34;-16312.91;5003563;28;45660;-93
2023/03/31 10:35:07;;;;;;;;;0.00;0.00;;;;;16.86;59.15;-16648.88;5006338;28;47231;-93
2023/03/31 10:37:35;;;;;;;;;0.67;0.00;;;;;16.62;58.43;-16309.38;5009029;28;45275;-93
2023/03/31 10:40:14;;;;;;;;;0.00;0.00;;;;;16.99;57.71;-15982.50;5009616;28;45323;-96
2023/03/31 10:42:51;;;;;;;;;0.00;0.00;;;;;15.99;57.56;-15628.25;5007827;28;45403;-94
2023/03/31 10:45:38;;;;;;;;;0.67;0.00;;;;;17.37;56.57;-14650.78;5024250;28;47572;-93
2023/03/31 10:48:05;;;;;;;;;0.00;0.00;;;;;17.30;56.33;-14649.56;5003382;28;45712;-92
2023/03/31 10:50:35;;;;;;;;;0.00;0.00;;;;;17.43;55.84;-13982.06;5020102;28;45454;-96
2023/03/31 10:53:14;;;;;;;;;0.33;0.00;;;;;17.15;55.90;-13977.16;5010961;28;45355;-91
2023/03/31 10:55:55;;;;;;;;;1.00;0.00;;;;;17.63;56.31;-14320.47;5009261;28;47340;-93
2023/03/31 10:58:43;;;;;;;;;0.00;0.00;;;;;17.49;56.10;-13983.00;5004877;28;45472;-93
2023/03/31 11:01:44;;;;;;;;;0.00;0.00;;;;;17.78;55.86;-13317.47;5024709;28;45252;-93
2023/03/31 11:04:42;;;;;;;;;0.00;0.00;;;;;17.86;55.76;-13654.16;5022176;28;45483;-93
2023/03/31 11:07:28;;;;;;;;;1.67;0.00;;;;;17.56;54.70;-11973.28;5007277;28;46521;-95
2023/03/31 11:10:19;;;;;;;;;1.00;0.00;;;;;16.72;54.01;-10957.09;4996698;28;45407;-95
2023/03/31 11:12:59;;;;;;;;;1.33;0.00;;;;;16.33;54.39;-10952.31;4992996;28;45554;-91
2023/03/31 11:15:34;;;;;;;;;0.00;0.00;;;;;17.22;54.86;-10963.22;4983783;28;45372;-95
2023/03/31 11:18:11;;;;;;;;;0.00;0.00;;;;;16.32;54.77;-10282.78;4984698;28;46337;-94
2023/03/31 11:21:04;;;;;;;;;0.00;0.00;;;;;17.63;55.00;-10632.91;4970766;28;45378;-94
2023/03/31 11:24:02;;;;;;;;;0.00;0.00;;;;;17.06;56.19;-11631.41;4981320;28;45299;-95
2023/03/31 11:26:39;;;;;;;;;1.00;0.00;;;;;17.58;56.50;-11973.56;4920216;28;45450;-92
2023/03/31 11:29:05;;;;;;;;;0.00;0.00;;;;;17.62;55.35;-11303.53;4912647;28;47294;-93
2023/03/31 11:32:00;;;;;;;;;3.00;0.00;;;;;17.64;54.61;-10633.03;4902560;29;45376;-92
2023/03/31 11:34:46;;;;;;;;;0.00;0.00;;;;;18.05;54.42;-10637.78;4901463;29;45501;-93
2023/03/31 11:37:41;;;;;;;;;0.00;0.00;;;;;18.32;54.02;-10976.72;4908885;29;45304;-95
2023/03/31 11:40:21;;;;;;;;;0.00;0.00;;;;;18.49;53.74;-10978.78;4906178;29;45438;-96
2023/03/31 11:42:50;;;;;;;;;0.00;0.00;;;;;18.57;53.41;-10643.88;4924861;28;45476;-94
2023/03/31 11:45:20;;;;;;;;;1.00;0.00;;;;;18.47;53.76;-9970.94;4943071;28;45517;-94
2023/03/31 11:47:52;;;;;;;;;0.00;0.00;;;;;18.46;53.01;-9299.00;4941651;28;45366;-93
2023/03/31 11:50:22;;;;;;;;;0.00;0.00;;;;;18.33;53.52;-9633.66;4940865;28;46252;-93
2023/03/31 11:53:01;;;;;;;;;0.00;0.00;;;;;18.46;53.97;-9970.81;4939417;28;45509;-95
2023/03/31 11:55:29;;;;;;;;;0.00;0.00;;;;;18.43;53.25;-8962.75;4940406;28;45456;-91
2023/03/31 11:58:12;;;;;;;;;0.00;0.00;;;;;18.43;53.08;-7954.69;4937571;28;45405;-91
2023/03/31 12:00:43;;;;;;;;;1.00;0.00;;;;;18.44;53.02;-8290.84;4939418;28;46404;-94
2023/03/31 12:03:32;;;;;;;;;0.00;0.00;;;;;18.19;50.65;-4928.28;4963936;28;45433;-95
2023/03/31 12:06:05;;;;;;;;;0.00;0.00;;;;;18.40;48.73;-891.00;5001753;28;45331;-94
2023/03/31 12:08:49;;;;;;;;;0.00;0.00;;;;;18.49;49.62;119.63;5000477;28;45502;-96
2023/03/31 12:11:30;;;;;;;;;0.00;0.00;;;;;18.50;47.35;4163.53;4999620;28;46266;-95
2023/03/31 12:14:04;;;;;;;;;0.00;0.00;;;;;18.48;48.71;4163.25;4998653;28;45382;-91
2023/03/31 12:16:37;;;;;;;;;1.00;0.00;;;;;18.45;48.71;5174.47;4997800;28;45293;-93
2023/03/31 12:19:26;;;;;;;;;2.00;0.00;;;;;18.34;49.09;5172.94;4996187;28;45431;-89
2023/03/31 12:22:06;;;;;;;;;0.00;0.00;;;;;18.06;51.64;453.88;4997753;28;46352;-92
2023/03/31 12:24:35;;;;;;;;;0.00;0.00;;;;;18.16;53.78;-3919.53;5218770;22;45416;-92
2023/03/31 12:27:20;;;;;;;;;1.00;0.00;;;;;18.04;56.50;-9295.00;4979256;28;45404;-95
2023/03/31 12:29:57;;;;;;;;;0.00;0.00;;;;;17.73;57.97;-11640.28;4980240;28;45497;-95
2023/03/31 12:32:27;;;;;;;;;0.00;0.00;;;;;18.00;58.98;-13991.66;4978553;28;46904;-93
2023/03/31 12:35:03;;;;;;;;;0.00;0.00;;;;;18.03;58.45;-12986.09;4979338;28;45481;-93
2023/03/31 12:37:58;;;;;;;;;1.00;0.00;;;;;18.07;57.00;-11980.31;4979246;28;45487;-96
2023/03/31 12:40:38;;;;;;;;;0.00;0.00;;;;;18.10;56.64;-11309.63;4979760;28;45385;-93
2023/03/31 12:43:15;;;;;;;;;1.00;0.00;;;;;18.00;55.61;-10301.56;4974940;28;45430;-91
2023/03/31 12:45:52;;;;;;;;;0.00;0.00;;;;;17.96;54.39;-8287.00;4980907;28;45361;-93
2023/03/31 12:48:55;;;;;;;;;1.00;0.00;;;;;18.31;52.37;-6273.44;4980811;28;45400;-96
2023/03/31 12:51:35;;;;;;;;;1.00;0.00;;;;;18.38;52.35;-5265.09;4976771;28;45687;-96
2023/03/31 12:54:33;;;;;;;;;0.00;0.00;;;;;18.44;52.67;-4928.94;4979807;28;46295;-96
2023/03/31 12:56:58;;;;;;;;;0.00;0.00;;;;;18.46;52.08;-3583.38;4972863;28;45290;-94
2023/03/31 12:59:32;;;;;;;;;0.00;0.00;;;;;18.32;51.91;-3583.31;4978059;28;45336;-91
2023/03/31 13:02:16;;;;;;;;;1.00;0.00;;;;;18.42;51.60;-3246.91;4978790;28;45338;-96
2023/03/31 13:04:42;;;;;;;;;0.00;0.00;;;;;18.34;52.11;-2910.47;4976793;28;47306;-95
2023/03/31 13:07:26;;;;;;;;;0.00;0.00;;;;;18.35;50.56;-891.19;4968622;28;45343;-94
2023/03/31 13:10:20;;;;;;;;;0.00;0.00;;;;;18.32;51.58;-891.28;4974037;28;45505;-92
2023/03/31 13:13:14;;;;;;;;;0.00;0.00;;;;;18.00;50.17;1126.69;4978860;28;45510;-93
2023/03/31 13:15:49;;;;;;;;;2.00;0.00;;;;;18.26;49.73;1802.16;4978592;28;47317;-94
2023/03/31 13:18:19;;;;;;;;;0.00;0.00;;;;;18.23;49.59;2812.47;4978122;28;45342;-92
2023/03/31 13:20:45;;;;;;;;;0.00;0.00;;;;;18.33;50.57;2139.59;4975484;28;45518;-92
2023/03/31 13:23:10;;;;;;;;;0.00;0.00;;;;;18.46;49.58;2477.66;4974992;28;45791;-93
2023/03/31 13:25:55;;;;;;;;;0.67;0.00;;;;;18.11;49.30;3148.13;4980784;28;45741;-94
2023/03/31 13:28:20;;;;;;;;;0.00;0.00;;;;;18.73;49.22;3491.72;4965313;28;45424;-93
2023/03/31 13:30:48;;;;;;;;;0.00;0.00;;;;;18.77;49.60;2817.78;5000145;28;45472;-92
2023/03/31 13:33:40;;;;;;;;;1.33;0.00;;;;;18.74;49.02;4166.41;4978283;28;45547;-92
2023/03/31 13:36:37;;;;;;;;;3.00;0.00;;;;;18.66;51.05;2142.44;4978192;28;45377;-96
2023/03/31 13:39:56;;;;;;;;;0.00;0.00;;;;;18.52;55.29;-4929.16;4962573;28;45742;-96
2023/03/31 13:42:32;;;;;;;;;0.00;0.00;;;;;17.30;56.17;-7275.31;4975286;28;45283;-93
2023/03/31 13:45:06;;;;;;;;;0.00;0.00;;;;;18.17;56.56;-8624.56;4977801;28;45365;-96
2023/03/31 13:47:47;;;;;;;;;0.00;0.00;;;;;17.99;58.55;-10972.63;4974713;28;46272;-92
2023/03/31 13:50:27;;;;;;;;;0.00;0.00;;;;;17.83;58.52;-11306.22;4971437;28;45716;-94
2023/03/31 13:53:41;;;;;;;;;1.00;0.00;;;;;17.71;59.36;-11975.34;4979059;28;45461;-94
2023/03/31 13:56:22;;;;;;;;;0.00;0.00;;;;;17.30;62.38;-16323.69;4977110;28;45262;-91
2023/03/31 13:59:12;;;;;;;;;0.00;0.00;;;;;17.43;62.93;-17330.59;4997306;23;45616;-91
2023/03/31 14:01:44;;;;;;;;;0.00;0.00;;;;;17.27;62.19;-16657.63;5018751;28;45563;-92
2023/03/31 14:04:34;;;;;;;;;0.00;0.00;;;;;17.07;62.63;-16653.38;5000250;28;45565;-95
2023/03/31 14:07:29;;;;;;;;;1.00;0.00;;;;;16.68;62.54;-16979.41;5000806;28;45452;-95
2023/03/31 14:09:57;;;;;;;;;0.00;0.00;;;;;16.44;64.71;-18979.00;5297049;23;47261;-94
2023/03/31 14:12:37;;;;;;;;;0.00;0.00;;;;;16.97;64.95;-19326.41;5015192;28;45721;-94
2023/03/31 14:15:05;;;;;;;;;0.67;0.00;;;;;17.04;65.06;-19662.53;5004088;28;45272;-96
2023/03/31 14:17:39;;;;;;;;;0.00;0.00;;;;;17.07;64.75;-19329.16;5010066;28;45497;-96
2023/03/31 14:20:26;;;;;;;;;0.00;0.00;;;;;16.29;64.01;-19308.94;5116871;23;45752;-93
2023/03/31 14:29:11;;;;;;;;;0.00;0.00;;;;;17.06;62.47;-18660.03;5142046;23;45332;-92
2023/03/31 14:32:06;;;;;;;;;0.00;0.00;;;;;17.38;62.21;-18333.38;5023104;22;46200;-91
2023/03/31 14:34:52;;;;;;;;;0.00;0.00;;;;;17.20;62.40;-18329.06;4994762;28;45457;-89
2023/03/31 14:37:21;;;;;;;;;0.00;0.00;;;;;17.38;61.67;-17998.63;4978292;28;45341;-89
2023/03/31 14:39:51;;;;;;;;;0.00;0.00;;;;;17.48;61.89;-18001.16;4996367;28;45337;-90
2023/03/31 14:42:20;;;;;;;;;0.00;0.00;;;;;17.50;61.48;-17666.94;4977686;28;47792;-90
2023/03/31 14:44:46;;;;;;;;;0.33;0.00;;;;;17.04;61.47;-17990.69;4982828;28;45377;-90
2023/03/31 14:47:21;;;;;;;;;0.00;0.00;;;;;16.84;61.39;-17986.00;5013888;28;45483;-91
2023/03/31 14:49:46;;;;;;;;;0.00;0.00;;;;;17.09;61.61;-17657.44;5014404;28;45553;-89
2023/03/31 14:52:18;;;;;;;;;0.00;0.00;;;;;17.48;60.35;-16997.00;5013467;28;46468;-88
2023/03/31 14:54:46;;;;;;;;;0.00;0.00;;;;;17.16;60.53;-16655.22;4997234;28;45464;-88
2023/03/31 14:57:18;;;;;;;;;0.00;0.00;;;;;17.47;60.29;-16662.00;5000554;28;45427;-86
2023/03/31 14:59:45;;;;;;;;;0.33;0.00;;;;;17.36;60.26;-16324.84;5001005;28;45581;-87
2023/03/31 15:02:18;;;;;;;;;0.00;0.00;;;;;17.33;59.68;-16324.22;5016950;28;47431;-88
2023/03/31 15:04:48;;;;;;;;;0.00;0.00;;;;;17.02;59.82;-15983.22;4999819;28;45416;-89
2023/03/31 15:07:15;;;;;;;;;1.00;0.00;;;;;17.16;59.21;-15651.22;5015578;28;45593;-91
2023/03/31 15:09:48;;;;;;;;;0.00;0.00;;;;;16.87;59.01;-15311.00;5014472;28;45487;-91
2023/03/31 15:12:15;;;;;;;;;0.67;0.00;;;;;17.49;59.06;-14988.06;5001835;28;48229;-88
2023/03/31 15:14:46;;;;;;;;;0.00;0.00;;;;;17.20;58.75;-14982.63;4995114;28;45506;-89
2023/03/31 15:17:24;;;;;;;;;0.00;0.00;;;;;17.12;58.67;-14646.22;4999260;28;45544;-89
2023/03/31 15:27:04;;;;;;;;;0.00;0.00;;;;;16.69;57.88;-13634.72;5008959;23;45372;-96
2023/03/31 15:32:31;;;;;;;;;0.00;0.00;;;;;17.41;58.10;-13646.69;5115858;23;46728;-93
2023/03/31 15:34:57;;;;;;;;;0.00;0.00;;;;;17.32;57.54;-13310.19;4964487;28;48482;-87
2023/03/31 15:37:31;;;;;;;;;0.00;0.00;;;;;17.49;57.41;-13312.88;4952585;28;45511;-88
2023/03/31 15:40:23;;;;;;;;;0.00;0.00;;;;;17.15;56.95;-12302.63;4955059;28;45476;-94
2023/03/31 15:42:54;;;;;;;;;0.00;0.00;;;;;16.45;56.76;-11623.25;4956622;28;45592;-94
2023/03/31 15:45:37;;;;;;;;;0.00;0.00;;;;;15.67;56.33;-10944.09;4938553;28;45668;-96
2023/03/31 15:48:04;;;;;;;;;3.00;0.00;;;;;16.76;56.07;-10287.72;4960632;28;45358;-92
2023/03/31 15:50:32;;;;;;;;;0.00;0.00;;;;;17.30;55.32;-9958.50;4956638;28;45511;-92
2023/03/31 15:53:02;;;;;;;;;0.00;0.00;;;;;16.35;56.07;-9613.56;4958798;28;45401;-96
2023/03/31 15:55:42;;;;;;;;;0.00;0.00;;;;;16.90;55.85;-9619.09;4971246;28;48085;-92
2023/03/31 15:58:15;;;;;;;;;1.00;0.00;;;;;16.19;56.20;-9277.22;4951951;28;46010;-91
2023/03/31 16:00:46;;;;;;;;;0.00;0.00;;;;;17.13;55.81;-8950.94;4946269;28;46601;-92
2023/03/31 16:03:37;;;;;;;;;0.00;0.00;;;;;15.96;55.69;-8605.63;4957743;28;45440;-89
2023/03/31 16:06:13;;;;;;;;;0.00;0.00;;;;;17.01;55.60;-8614.69;4950957;28;45573;-87
2023/03/31 16:08:44;;;;;;;;;0.00;0.00;;;;;16.73;55.87;-8277.16;4956311;28;45471;-90
2023/03/31 16:11:16;;;;;;;;;0.00;0.00;;;;;16.33;55.95;-8608.78;4952119;28;45640;-90
2023/03/31 16:13:47;;;;;;;;;1.00;0.00;;;;;16.94;55.77;-8278.84;4943876;28;45519;-92
2023/03/31 16:16:17;;;;;;;;;0.00;0.00;;;;;16.65;55.80;-7941.41;4960380;28;47370;-93
2023/03/31 16:19:02;;;;;;;;;0.00;0.00;;;;;16.67;55.77;-7941.56;4948700;28;46224;-90
2023/03/31 16:21:36;;;;;;;;;0.00;0.00;;;;;16.68;56.21;-7606.53;4948548;28;45380;-93
2023/03/31 16:24:02;;;;;;;;;0.00;0.00;;;;;16.61;56.44;-7606.03;4956203;28;45588;-94
2023/03/31 16:26:28;;;;;;;;;0.00;0.00;;;;;16.81;55.85;-7272.19;4957076;28;46719;-91
2023/03/31 16:28:56;;;;;;;;;0.00;0.00;;;;;16.72;55.74;-7271.59;4962011;28;46099;-94
2023/03/31 16:31:40;;;;;;;;;0.00;0.00;;;;;16.57;55.51;-7270.59;4935185;28;45491;-95
2023/03/31 16:34:08;;;;;;;;;0.33;0.00;;;;;16.46;55.50;-6934.81;4971708;28;45395;-88
2023/03/31 16:36:34;;;;;;;;;0.00;0.00;;;;;16.64;55.65;-6935.88;4945843;28;48046;-93
2023/03/31 16:39:03;;;;;;;;;0.00;0.00;;;;;16.76;55.41;-6936.56;4939384;28;45394;-94
2023/03/31 16:41:31;;;;;;;;;0.00;0.00;;;;;16.41;55.93;-6934.50;4941758;28;45499;-92
2023/03/31 16:43:56;;;;;;;;;0.00;0.00;;;;;16.51;55.98;-7270.22;4951813;28;45900;-92
2023/03/31 16:46:22;;;;;;;;;0.00;0.00;;;;;16.36;56.10;-7269.25;4942941;28;47616;-92
2023/03/31 16:48:48;;;;;;;;;1.00;0.00;;;;;16.35;56.21;-7604.19;4938783;28;46057;-93
2023/03/31 16:51:14;;;;;;;;;0.00;0.00;;;;;16.36;56.40;-7269.28;4945555;28;45457;-93
2023/03/31 16:53:39;;;;;;;;;0.00;0.00;;;;;16.27;56.39;-6933.69;4974049;28;45557;-92
2023/03/31 16:56:07;;;;;;;;;0.00;0.00;;;;;16.61;56.13;-6935.69;4953089;28;47081;-92
2023/03/31 16:58:33;;;;;;;;;0.00;0.00;;;;;16.57;56.48;-6935.47;4957149;28;46429;-92
2023/03/31 17:00:59;;;;;;;;;0.00;0.00;;;;;16.33;56.00;-6599.00;4960074;28;45334;-93
2023/03/31 17:03:25;;;;;;;;;0.00;0.00;;;;;16.21;56.35;-6598.38;4948031;28;45491;-92
2023/03/31 17:05:53;;;;;;;;;0.00;0.00;;;;;16.51;56.33;-6935.13;4940313;28;47173;-92
2023/03/31 17:08:20;;;;;;;;;1.00;0.00;;;;;15.88;56.13;-6596.56;4921965;28;45398;-92
2023/03/31 17:10:53;;;;;;;;;0.00;0.00;;;;;16.49;56.47;-6599.88;4938386;28;45394;-91
2023/03/31 17:13:19;;;;;;;;;0.00;0.00;;;;;16.00;56.45;-6597.22;4958384;28;45393;-92
2023/03/31 17:15:45;;;;;;;;;0.00;0.00;;;;;16.46;56.38;-6599.72;4955194;28;48197;-92
2023/03/31 17:18:10;;;;;;;;;0.00;0.00;;;;;15.99;56.65;-6597.19;4949892;28;45458;-92
2023/03/31 17:20:36;;;;;;;;;0.00;0.00;;;;;16.44;56.41;-6934.69;4955313;28;45356;-92
2023/03/31 17:23:01;;;;;;;;;0.00;0.00;;;;;16.27;57.56;-7603.59;4939750;28;45442;-92
2023/03/31 17:25:27;;;;;;;;;0.00;0.00;;;;;15.99;57.26;-7936.47;4940789;28;45965;-92
2023/03/31 17:27:54;;;;;;;;;0.00;0.00;;;;;16.06;57.84;-8271.75;4942906;28;45648;-92